Time;durP1;ratioP1;P1;durP2;ratioP2;P2;SDS_P1;SDS_P2;PMS_P1;PMS_P2;Temp;Humidity;BMP_temperature;BMP_pressure;BME280_temperature;BME280_humidity;BME280_pressure;Samples;Min_cycle;Max_cycle;Signal;HPM_P1;HPM_P2
2021/05/01 00:01:37;;;;;;;;;;;;;;;14.37;69.93;98943.19;5115110;28;20281;-76
2021/05/01 00:04:06;;;;;;;;;;;;;;;14.34;70.18;98927.91;5115313;28;19963;-76
2021/05/01 00:06:34;;;;;;;;;;;;;;;14.31;70.38;98930.56;5115522;28;20258;-76
2021/05/01 00:09:06;;;;;;;;;;;;;;;14.26;70.68;98929.81;5115532;28;20325;-75
2021/05/01 00:11:34;;;;;;;;;;;;;;;14.24;70.38;98921.31;5115059;28;19924;-76
2021/05/01 00:14:02;;;;;;;;;;;;;;;14.19;70.54;98915.44;5097046;28;19931;-75
2021/05/01 00:16:30;;;;;;;;;;;;;;;14.19;70.91;98912.03;5097072;28;19928;-75
2021/05/01 00:18:58;;;;;;;;;;;;;;;14.16;71.19;98912.97;5115048;28;19924;-75
2021/05/01 00:21:27;;;;;;;;;;;;;;;14.12;70.97;98916.50;5114816;28;20304;-75
2021/05/01 00:23:55;;;;;;;;;;;;;;;14.11;71.19;98914.81;5114905;28;19923;-75
2021/05/01 00:26:23;;;;;;;;;;;;;;;14.09;71.60;98911.44;5096984;28;20026;-75
2021/05/01 00:28:50;;;;;;;;;;;;;;;14.08;71.50;98904.66;5114835;28;19934;-75
2021/05/01 00:31:19;;;;;;;;;;;;;;;14.03;71.97;98896.25;5114831;28;19923;-76
2021/05/01 00:33:47;;;;;;;;;;;;;;;14.01;71.52;98898.00;5114718;28;20026;-75
2021/05/01 00:36:15;;;;;;;;;;;;;;;13.96;71.79;98900.66;5115020;28;19931;-75
2021/05/01 00:38:44;;;;;;;;;;;;;;;13.91;72.23;98906.81;5114686;28;20010;-75
2021/05/01 00:41:13;;;;;;;;;;;;;;;13.90;72.21;98900.00;5114704;28;19924;-75
2021/05/01 00:43:41;;;;;;;;;;;;;;;13.88;72.47;98896.63;5114520;28;19928;-75
2021/05/01 00:46:09;;;;;;;;;;;;;;;13.86;72.48;98898.41;5114607;28;19923;-75
2021/05/01 00:48:37;;;;;;;;;;;;;;;13.84;72.76;98895.06;5114487;28;20377;-75
2021/05/01 00:51:05;;;;;;;;;;;;;;;13.81;72.88;98895.97;5114535;28;20285;-75
2021/05/01 00:53:33;;;;;;;;;;;;;;;13.79;72.59;98889.19;5114514;28;19923;-74
2021/05/01 00:56:02;;;;;;;;;;;;;;;13.79;72.67;98886.63;5114853;28;19927;-75
2021/05/01 00:58:29;;;;;;;;;;;;;;;13.78;72.70;98884.94;5114415;28;19923;-75
2021/05/01 01:01:16;;;;;;;;;;;;;;;13.77;72.86;98893.53;5114176;28;19930;-75
2021/05/01 01:03:45;;;;;;;;;;;;;;;13.76;72.72;98891.84;5114389;28;19924;-75
2021/05/01 01:06:14;;;;;;;;;;;;;;;13.71;72.63;98884.25;5114333;28;19924;-75
2021/05/01 01:08:41;;;;;;;;;;;;;;;13.65;72.92;98889.56;5114283;28;19969;-75
2021/05/01 01:11:10;;;;;;;;;;;;;;;13.61;72.82;98890.50;5130549;28;19924;-75
2021/05/01 01:13:44;;;;;;;;;;;;;;;13.57;73.27;98893.19;5114348;28;19924;-75
2021/05/01 01:16:12;;;;;;;;;;;;;;;13.56;73.22;98899.19;5114304;28;19924;-75
2021/05/01 01:18:40;;;;;;;;;;;;;;;13.55;73.62;98893.25;5096420;28;19938;-75
2021/05/01 01:21:08;;;;;;;;;;;;;;;13.54;73.38;98888.13;5114289;28;19931;-75
2021/05/01 01:23:37;;;;;;;;;;;;;;;13.51;73.52;98888.22;5114131;28;20026;-75
2021/05/01 01:26:04;;;;;;;;;;;;;;;13.47;73.81;98886.59;5114204;28;19960;-75
2021/05/01 01:28:33;;;;;;;;;;;;;;;13.42;73.95;98876.47;5114133;28;19974;-75
2021/05/01 01:31:01;;;;;;;;;;;;;;;13.41;73.95;98875.63;5114091;28;20039;-75
2021/05/01 01:33:29;;;;;;;;;;;;;;;13.39;74.14;98867.13;5114062;28;19924;-75
2021/05/01 01:35:57;;;;;;;;;;;;;;;13.36;74.26;98869.75;5114089;28;20427;-75
2021/05/01 01:38:25;;;;;;;;;;;;;;;13.31;74.18;98869.06;5096406;28;19969;-75
2021/05/01 01:40:53;;;;;;;;;;;;;;;13.30;74.25;98861.41;5114598;28;19924;-76
2021/05/01 01:43:21;;;;;;;;;;;;;;;13.28;74.30;98863.16;5113855;28;19944;-76
2021/05/01 01:45:49;;;;;;;;;;;;;;;13.26;74.38;98855.53;5114018;28;19931;-75
2021/05/01 01:48:17;;;;;;;;;;;;;;;13.22;74.51;98856.44;5130162;28;19968;-75
2021/05/01 01:50:45;;;;;;;;;;;;;;;13.17;74.54;98855.72;5113944;28;19931;-76
2021/05/01 01:53:13;;;;;;;;;;;;;;;13.14;74.61;98855.81;5096016;28;19969;-75
2021/05/01 01:55:41;;;;;;;;;;;;;;;13.12;74.83;98857.59;5113855;28;19928;-76
2021/05/01 01:58:10;;;;;;;;;;;;;;;13.11;74.75;98855.03;5095782;28;19924;-75
2021/05/01 02:00:39;;;;;;;;;;;;;;;13.09;74.76;98857.66;5113770;28;19924;-76
2021/05/01 02:03:06;;;;;;;;;;;;;;;13.02;74.90;98861.22;5113708;28;20327;-75
2021/05/01 02:05:35;;;;;;;;;;;;;;;13.00;74.73;98857.84;5113962;28;20018;-75
2021/05/01 02:08:04;;;;;;;;;;;;;;;12.95;75.38;98869.06;5114996;28;19932;-75
2021/05/01 02:10:32;;;;;;;;;;;;;;;12.90;75.19;98861.50;5099592;28;19924;-76
2021/05/01 02:12:59;;;;;;;;;;;;;;;12.88;75.12;98863.25;5117689;28;20305;-75
2021/05/01 02:15:28;;;;;;;;;;;;;;;12.85;75.24;98863.31;5099246;28;19923;-75
2021/05/01 02:17:58;;;;;;;;;;;;;;;12.85;75.61;98873.56;5099542;28;19930;-75
2021/05/01 02:20:28;;;;;;;;;;;;;;;12.82;75.50;98865.94;5117309;28;19923;-75
2021/05/01 02:23:11;;;;;;;;;;;;;;;12.77;75.72;98868.59;5117198;28;19973;-76
2021/05/01 02:25:42;;;;;;;;;;;;;;;12.78;75.54;98864.34;5117272;28;20018;-76
2021/05/01 02:28:10;;;;;;;;;;;;;;;12.72;75.81;98857.63;5117171;28;19924;-75
2021/05/01 02:30:39;;;;;;;;;;;;;;;12.71;75.99;98850.84;5117124;28;20343;-75
2021/05/01 02:33:06;;;;;;;;;;;;;;;12.70;76.01;98848.28;5117043;28;19923;-76
2021/05/01 02:35:35;;;;;;;;;;;;;;;12.68;76.01;98855.16;5117355;28;20419;-75
2021/05/01 02:38:03;;;;;;;;;;;;;;;12.67;76.15;98848.34;5116967;28;20361;-75
2021/05/01 02:40:32;;;;;;;;;;;;;;;12.63;76.13;98839.06;5116965;28;19928;-75
2021/05/01 02:43:00;;;;;;;;;;;;;;;12.62;76.14;98839.97;5117151;28;19924;-75
2021/05/01 02:45:28;;;;;;;;;;;;;;;12.61;76.18;98838.25;5116764;28;19924;-75
2021/05/01 02:47:57;;;;;;;;;;;;;;;12.60;76.35;98831.44;5116799;28;20381;-76
2021/05/01 02:50:25;;;;;;;;;;;;;;;12.52;76.02;98839.31;5116714;28;19924;-76
2021/05/01 02:52:53;;;;;;;;;;;;;;;12.44;76.60;98835.22;5116655;28;19924;-75
2021/05/01 02:55:20;;;;;;;;;;;;;;;12.37;76.40;98836.25;5116539;28;19977;-75
2021/05/01 02:57:49;;;;;;;;;;;;;;;12.31;76.50;98839.75;5116603;28;19973;-76
2021/05/01 03:00:18;;;;;;;;;;;;;;;12.32;76.73;98841.47;5116329;28;19968;-76
2021/05/01 03:02:52;;;;;;;;;;;;;;;12.35;76.77;98850.78;5116582;28;20295;-76
2021/05/01 03:05:22;;;;;;;;;;;;;;;12.38;76.72;98853.28;5116405;28;19928;-75
2021/05/01 03:07:51;;;;;;;;;;;;;;;12.36;76.92;98848.19;5116395;28;20030;-76
2021/05/01 03:10:19;;;;;;;;;;;;;;;12.36;76.91;98857.56;5116365;28;19924;-75
2021/05/01 03:12:47;;;;;;;;;;;;;;;12.34;76.92;98859.31;5098373;28;19951;-76
2021/05/01 03:15:16;;;;;;;;;;;;;;;12.33;76.94;98857.66;5116168;28;19924;-76
2021/05/01 03:17:44;;;;;;;;;;;;;;;12.33;76.99;98847.44;5116193;28;19969;-75
2021/05/01 03:20:13;;;;;;;;;;;;;;;12.33;76.92;98850.00;5116100;28;19930;-76
2021/05/01 03:22:42;;;;;;;;;;;;;;;12.33;77.08;98843.16;5116004;28;19935;-76
2021/05/01 03:25:11;;;;;;;;;;;;;;;12.33;76.99;98847.44;5131932;27;19955;-76
2021/05/01 03:27:39;;;;;;;;;;;;;;;12.32;76.91;98850.84;5097912;28;19979;-76
2021/05/01 03:30:09;;;;;;;;;;;;;;;12.31;77.01;98854.28;5115972;28;19923;-75
2021/05/01 03:32:38;;;;;;;;;;;;;;;12.32;77.20;98861.09;5115951;28;19980;-76
2021/05/01 03:35:07;;;;;;;;;;;;;;;12.31;77.13;98867.09;5115806;28;20270;-76
2021/05/01 03:37:34;;;;;;;;;;;;;;;12.28;77.04;98860.31;5115746;28;19931;-76
2021/05/01 03:40:04;;;;;;;;;;;;;;;12.27;77.20;98862.88;5115777;28;20315;-76
2021/05/01 03:42:32;;;;;;;;;;;;;;;12.24;77.03;98858.69;5114832;28;20007;-76
2021/05/01 03:45:00;;;;;;;;;;;;;;;12.21;77.08;98868.16;5115882;28;19931;-76
2021/05/01 03:47:28;;;;;;;;;;;;;;;12.19;77.02;98864.78;5115904;28;20440;-76
2021/05/01 03:49:56;;;;;;;;;;;;;;;12.17;77.24;98869.06;5079932;28;19924;-76
2021/05/01 03:52:24;;;;;;;;;;;;;;;12.17;77.37;98866.50;5115552;28;19924;-76
2021/05/01 03:54:52;;;;;;;;;;;;;;;12.14;77.16;98866.59;5115484;28;19923;-76
2021/05/01 03:57:21;;;;;;;;;;;;;;;12.11;76.84;98872.59;5115403;28;19924;-76
2021/05/01 03:59:49;;;;;;;;;;;;;;;12.13;77.05;98865.75;5117049;27;20290;-76
2021/05/01 04:02:17;;;;;;;;;;;;;;;12.18;77.15;98863.94;5135759;27;19924;-76
2021/05/01 04:04:45;;;;;;;;;;;;;;;12.21;77.29;98873.25;5135853;27;19976;-75
2021/05/01 04:07:13;;;;;;;;;;;;;;;12.23;76.95;98872.38;5135674;27;19924;-75
2021/05/01 04:09:41;;;;;;;;;;;;;;;12.20;76.70;98876.69;5135744;27;19923;-75
2021/05/01 04:12:09;;;;;;;;;;;;;;;12.20;77.02;98874.13;5135688;27;19931;-75
2021/05/01 04:14:38;;;;;;;;;;;;;;;12.23;76.93;98871.50;5135632;27;20400;-75
2021/05/01 04:17:05;;;;;;;;;;;;;;;12.31;77.08;98867.91;5135570;27;19923;-76
2021/05/01 04:19:34;;;;;;;;;;;;;;;12.40;77.07;98875.41;5135526;27;19927;-77
2021/05/01 04:22:04;;;;;;;;;;;;;;;12.46;76.92;98876.97;5135340;27;20033;-76
2021/05/01 04:24:32;;;;;;;;;;;;;;;12.54;77.04;98890.47;5135506;27;19928;-76
2021/05/01 04:27:00;;;;;;;;;;;;;;;12.61;76.74;98887.75;5135421;27;20352;-76
2021/05/01 04:29:27;;;;;;;;;;;;;;;12.68;76.77;98888.44;5135335;27;20038;-75
2021/05/01 04:31:56;;;;;;;;;;;;;;;12.79;76.90;98899.28;5135273;27;19958;-76
2021/05/01 04:34:24;;;;;;;;;;;;;;;12.89;76.64;98900.78;5135559;27;19968;-75
2021/05/01 04:36:51;;;;;;;;;;;;;;;12.94;76.40;98904.06;5135501;27;20031;-76
2021/05/01 04:39:20;;;;;;;;;;;;;;;13.03;76.35;98903.84;5135227;27;20316;-76
2021/05/01 04:41:48;;;;;;;;;;;;;;;13.14;76.18;98909.63;5135216;27;19996;-76
2021/05/01 04:44:16;;;;;;;;;;;;;;;13.26;75.97;98904.22;5135129;27;19923;-76
2021/05/01 04:46:44;;;;;;;;;;;;;;;13.32;75.93;98909.19;5135175;27;19924;-76
2021/05/01 04:49:13;;;;;;;;;;;;;;;13.37;75.45;98904.78;5135186;27;19973;-76
2021/05/01 04:51:40;;;;;;;;;;;;;;;13.38;75.32;98910.75;5135054;27;19946;-75
2021/05/01 04:54:08;;;;;;;;;;;;;;;13.39;75.33;98918.41;5135372;27;19924;-76
2021/05/01 04:56:36;;;;;;;;;;;;;;;13.43;75.25;98920.03;5135044;27;19934;-76
2021/05/01 04:59:04;;;;;;;;;;;;;;;13.42;75.11;98918.31;5116690;27;19930;-76
2021/05/01 05:01:33;;;;;;;;;;;;;;;13.40;75.21;98925.22;5134603;27;20369;-76
2021/05/01 05:04:01;;;;;;;;;;;;;;;13.40;75.16;98925.22;5135190;28;19977;-77
2021/05/01 05:06:30;;;;;;;;;;;;;;;13.41;75.32;98926.88;5116836;28;19923;-76
2021/05/01 05:08:59;;;;;;;;;;;;;;;13.42;75.43;98926.03;5134713;28;19923;-76
2021/05/01 05:11:27;;;;;;;;;;;;;;;13.48;75.30;98929.31;5134863;28;19924;-76
2021/05/01 05:13:56;;;;;;;;;;;;;;;13.56;75.71;98935.06;5134857;28;20322;-76
2021/05/01 05:16:24;;;;;;;;;;;;;;;13.68;75.58;98945.03;5134715;28;19924;-76
2021/05/01 05:18:52;;;;;;;;;;;;;;;13.78;75.09;98943.94;5134749;28;19934;-76
2021/05/01 05:21:20;;;;;;;;;;;;;;;13.92;75.09;98949.53;5116506;28;19923;-76
2021/05/01 05:23:49;;;;;;;;;;;;;;;14.08;74.81;98949.09;5134713;28;19928;-76
2021/05/01 05:26:17;;;;;;;;;;;;;;;14.26;74.63;98955.47;5134728;28;20315;-76
2021/05/01 05:28:44;;;;;;;;;;;;;;;14.39;74.80;98951.72;5134966;28;19923;-76
2021/05/01 05:31:12;;;;;;;;;;;;;;;14.49;74.45;98958.25;5134621;28;19934;-76
2021/05/01 05:33:40;;;;;;;;;;;;;;;14.59;74.90;98958.84;5116249;28;19930;-76
2021/05/01 05:36:08;;;;;;;;;;;;;;;14.74;74.62;98959.25;5134680;28;20293;-76
2021/05/01 05:38:35;;;;;;;;;;;;;;;14.90;74.09;98958.81;5116351;28;19923;-76
2021/05/01 05:41:05;;;;;;;;;;;;;;;15.05;73.98;98958.34;5134413;28;20014;-75
2021/05/01 05:43:34;;;;;;;;;;;;;;;15.21;73.30;98959.56;5136560;27;19930;-76
2021/05/01 05:46:12;;;;;;;;;;;;;;;15.40;73.01;98951.22;5138438;27;19928;-76
2021/05/01 05:48:45;;;;;;;;;;;;;;;15.56;72.78;98941.31;5138501;27;20002;-75
2021/05/01 05:51:17;;;;;;;;;;;;;;;15.74;72.15;98945.84;5138386;27;19959;-75
2021/05/01 05:53:47;;;;;;;;;;;;;;;15.89;71.28;98945.34;5138403;27;19923;-74
2021/05/01 05:56:16;;;;;;;;;;;;;;;16.04;70.64;98947.41;5138389;27;19930;-74
2021/05/01 05:58:44;;;;;;;;;;;;;;;16.14;70.37;98957.38;5138566;27;20314;-75
2021/05/01 06:01:11;;;;;;;;;;;;;;;16.25;70.07;98947.53;5137986;27;19927;-75
2021/05/01 06:03:40;;;;;;;;;;;;;;;16.40;69.32;98957.28;5138011;27;19968;-75
2021/05/01 06:06:11;;;;;;;;;;;;;;;16.49;68.77;98954.38;5138136;27;19924;-76
2021/05/01 06:08:39;;;;;;;;;;;;;;;16.61;68.12;98956.53;5138178;27;19928;-75
2021/05/01 06:11:09;;;;;;;;;;;;;;;16.70;67.91;98966.50;5138327;27;19930;-74
2021/05/01 06:13:38;;;;;;;;;;;;;;;16.74;67.56;98953.47;5138815;27;19927;-75
2021/05/01 06:16:06;;;;;;;;;;;;;;;16.82;67.12;98942.84;5137914;27;19930;-75
2021/05/01 06:18:34;;;;;;;;;;;;;;;16.95;66.70;98945.81;5137916;27;19931;-75
2021/05/01 06:21:02;;;;;;;;;;;;;;;17.07;66.12;98951.34;5137751;27;19927;-75
2021/05/01 06:23:30;;;;;;;;;;;;;;;17.19;65.82;98953.44;5137702;27;19924;-75
2021/05/01 06:25:58;;;;;;;;;;;;;;;17.28;65.62;98965.97;5137311;27;19924;-75
2021/05/01 06:28:28;;;;;;;;;;;;;;;17.30;65.21;98959.00;5137482;27;20018;-75
2021/05/01 06:30:59;;;;;;;;;;;;;;;17.49;65.41;98958.31;5137509;27;20427;-77
2021/05/01 06:33:28;;;;;;;;;;;;;;;17.69;64.91;98958.34;5137972;27;19931;-75
2021/05/01 06:35:56;;;;;;;;;;;;;;;17.86;64.02;98963.66;5137947;27;19923;-75
2021/05/01 06:38:27;;;;;;;;;;;;;;;17.87;63.00;98970.50;5137337;27;20355;-76
2021/05/01 06:40:58;;;;;;;;;;;;;;;17.82;62.70;98967.28;5137492;27;19923;-74
2021/05/01 06:43:35;;;;;;;;;;;;;;;17.80;62.44;98963.94;5137278;27;19924;-74
2021/05/01 06:46:05;;;;;;;;;;;;;;;17.86;61.93;98963.66;5119395;27;19923;-74
2021/05/01 06:48:33;;;;;;;;;;;;;;;17.96;61.84;98959.78;5137350;27;19927;-75
2021/05/01 06:51:02;;;;;;;;;;;;;;;18.16;61.76;98957.22;5137270;27;19923;-75
2021/05/01 06:53:31;;;;;;;;;;;;;;;18.27;61.24;98962.75;5136868;27;19930;-75
2021/05/01 06:56:01;;;;;;;;;;;;;;;18.41;61.42;98973.31;5137190;27;20398;-74
2021/05/01 06:58:30;;;;;;;;;;;;;;;18.46;60.72;98976.56;5137139;27;19959;-75
2021/05/01 07:00:59;;;;;;;;;;;;;;;18.40;60.18;98982.00;5136900;27;19923;-75
2021/05/01 07:03:29;;;;;;;;;;;;;;;18.43;60.58;98979.25;5136939;27;20437;-75
2021/05/01 07:05:58;;;;;;;;;;;;;;;18.47;60.41;98973.09;5137332;27;19923;-75
2021/05/01 07:08:34;;;;;;;;;;;;;;;18.47;59.88;98975.69;5137355;27;19931;-74
2021/05/01 07:11:06;;;;;;;;;;;;;;;18.59;59.84;98967.38;5136948;27;19924;-75
2021/05/01 07:13:50;;;;;;;;;;;;;;;18.75;59.42;98972.69;5118821;27;20017;-75
2021/05/01 07:16:17;;;;;;;;;;;;;;;18.87;59.23;98971.28;5136775;27;20380;-75
2021/05/01 07:18:48;;;;;;;;;;;;;;;18.88;58.38;98972.97;5136791;27;19924;-75
2021/05/01 07:21:18;;;;;;;;;;;;;;;18.81;58.01;98971.59;5137004;27;19923;-75
2021/05/01 07:23:45;;;;;;;;;;;;;;;18.92;58.54;98974.50;5136526;27;19930;-75
2021/05/01 07:26:17;;;;;;;;;;;;;;;19.01;58.32;98974.09;5136621;27;20006;-75
2021/05/01 07:29:00;;;;;;;;;;;;;;;19.06;57.71;98977.28;5136959;27;20422;-75
2021/05/01 07:31:38;;;;;;;;;;;;;;;19.22;57.71;98979.09;5118408;27;19930;-75
2021/05/01 07:34:10;;;;;;;;;;;;;;;19.37;57.77;98982.75;5136449;27;19924;-75
2021/05/01 07:36:39;;;;;;;;;;;;;;;19.48;57.64;98980.50;5136091;27;19930;-76
2021/05/01 07:39:10;;;;;;;;;;;;;;;19.50;57.21;98978.69;5136045;27;20363;-76
2021/05/01 07:41:40;;;;;;;;;;;;;;;19.51;57.02;98990.69;5136290;27;19931;-75
2021/05/01 07:44:08;;;;;;;;;;;;;;;19.62;57.45;98988.44;5136218;27;19931;-75
2021/05/01 07:46:39;;;;;;;;;;;;;;;19.74;57.40;98982.66;5135946;27;20418;-76
2021/05/01 07:49:08;;;;;;;;;;;;;;;19.74;57.04;98990.44;5136266;27;19931;-76
2021/05/01 07:51:38;;;;;;;;;;;;;;;19.78;57.10;98991.09;5136131;27;19972;-75
2021/05/01 07:54:13;;;;;;;;;;;;;;;19.88;57.21;99000.94;5136045;27;19946;-75
2021/05/01 07:56:41;;;;;;;;;;;;;;;19.93;57.19;98993.78;5135978;27;19924;-75
2021/05/01 07:59:10;;;;;;;;;;;;;;;20.06;57.32;99000.03;5136614;27;20400;-74
2021/05/01 08:01:38;;;;;;;;;;;;;;;20.18;57.43;98997.75;5135704;27;19927;-75
2021/05/01 08:04:06;;;;;;;;;;;;;;;20.26;56.94;99006.00;5136139;27;19923;-75
2021/05/01 08:06:35;;;;;;;;;;;;;;;20.32;56.99;98996.16;5135234;27;19930;-75
2021/05/01 08:09:04;;;;;;;;;;;;;;;20.29;56.09;99003.25;5135869;27;20395;-75
2021/05/01 08:11:40;;;;;;;;;;;;;;;20.36;56.16;99002.03;5135748;27;19927;-75
2021/05/01 08:14:08;;;;;;;;;;;;;;;20.41;56.21;99011.25;5136526;27;20364;-77
2021/05/01 08:16:38;;;;;;;;;;;;;;;20.39;56.27;99007.06;5136476;27;20392;-75
2021/05/01 08:19:06;;;;;;;;;;;;;;;20.56;56.55;99000.06;5135636;27;19923;-74
2021/05/01 08:21:35;;;;;;;;;;;;;;;20.59;56.24;98999.06;5135525;27;19931;-75
2021/05/01 08:24:04;;;;;;;;;;;;;;;20.78;56.72;98998.97;5135368;27;20289;-74
2021/05/01 08:26:31;;;;;;;;;;;;;;;20.87;56.26;98994.13;5118053;27;19992;-74
2021/05/01 08:29:00;;;;;;;;;;;;;;;20.94;55.96;99005.84;5135589;27;19963;-75
2021/05/01 08:31:27;;;;;;;;;;;;;;;20.96;55.30;99005.75;5135712;27;19968;-74
2021/05/01 08:33:56;;;;;;;;;;;;;;;20.99;55.12;99009.03;5135366;27;19978;-74
2021/05/01 08:36:25;;;;;;;;;;;;;;;20.95;54.66;99004.91;5135303;27;19927;-74
2021/05/01 08:38:54;;;;;;;;;;;;;;;20.98;55.12;99011.69;5135246;27;19950;-75
2021/05/01 08:41:22;;;;;;;;;;;;;;;21.00;55.21;99005.50;5135225;27;19923;-74
2021/05/01 08:44:04;;;;;;;;;;;;;;;21.11;54.94;99003.22;5135221;27;19927;-73
2021/05/01 08:46:32;;;;;;;;;;;;;;;21.17;55.64;99002.88;5135151;27;20014;-75
2021/05/01 08:48:59;;;;;;;;;;;;;;;21.25;54.87;98995.50;5135119;27;20431;-75
2021/05/01 08:51:27;;;;;;;;;;;;;;;21.33;54.57;98995.91;5135066;27;19965;-75
2021/05/01 08:53:55;;;;;;;;;;;;;;;21.33;54.83;98980.31;5135053;27;19931;-76
2021/05/01 08:56:24;;;;;;;;;;;;;;;21.25;54.13;98974.75;5135085;27;19923;-75
2021/05/01 08:58:53;;;;;;;;;;;;;;;21.14;53.61;98966.69;5135028;27;19923;-75
2021/05/01 09:01:22;;;;;;;;;;;;;;;21.33;53.76;98967.34;5134903;27;19923;-74
2021/05/01 09:03:51;;;;;;;;;;;;;;;21.63;53.93;98959.59;5134777;27;19994;-74
2021/05/01 09:06:20;;;;;;;;;;;;;;;21.90;53.70;98962.41;5135195;28;19931;-74
2021/05/01 09:08:54;;;;;;;;;;;;;;;21.94;52.97;98958.69;5134983;28;20292;-75
2021/05/01 09:11:33;;;;;;;;;;;;;;;22.05;53.29;98960.66;5135194;28;19924;-75
2021/05/01 09:14:17;;;;;;;;;;;;;;;22.09;53.03;98970.78;5134977;28;19927;-75
2021/05/01 09:16:56;;;;;;;;;;;;;;;22.02;53.05;98974.69;5135631;27;19945;-74
2021/05/01 09:19:31;;;;;;;;;;;;;;;22.07;53.54;98970.06;5138835;27;20369;-74
2021/05/01 09:22:00;;;;;;;;;;;;;;;22.27;53.62;98971.44;5139773;27;19924;-75
2021/05/01 09:24:28;;;;;;;;;;;;;;;22.27;52.96;98976.66;5139316;27;19923;-74
2021/05/01 09:27:01;;;;;;;;;;;;;;;22.25;52.32;98971.56;5139228;27;20467;-73
2021/05/01 09:29:31;;;;;;;;;;;;;;;22.41;52.66;98977.50;5138849;27;20373;-76
2021/05/01 09:32:00;;;;;;;;;;;;;;;22.56;51.48;98984.38;5139300;27;19923;-76
2021/05/01 09:34:39;;;;;;;;;;;;;;;22.61;51.33;98974.56;5139147;27;19962;-76
2021/05/01 09:37:07;;;;;;;;;;;;;;;22.73;51.51;98974.75;5139394;27;19923;-75
2021/05/01 09:39:46;;;;;;;;;;;;;;;22.90;51.73;98972.78;5139592;27;19934;-76
2021/05/01 09:42:16;;;;;;;;;;;;;;;23.00;51.37;98971.28;5139512;27;19923;-75
2021/05/01 09:44:47;;;;;;;;;;;;;;;22.86;51.09;98976.53;5140168;27;20447;-75
2021/05/01 09:47:16;;;;;;;;;;;;;;;22.56;51.97;98968.78;5139542;27;19946;-75
2021/05/01 09:49:46;;;;;;;;;;;;;;;22.57;51.67;98969.63;5138697;27;19930;-75
2021/05/01 09:52:15;;;;;;;;;;;;;;;22.60;51.04;98965.06;5138991;27;19923;-75
2021/05/01 09:54:43;;;;;;;;;;;;;;;22.72;50.97;98965.28;5138589;27;20296;-76
2021/05/01 09:57:16;;;;;;;;;;;;;;;22.86;51.09;98971.31;5138792;27;19927;-75
2021/05/01 09:59:49;;;;;;;;;;;;;;;22.85;50.83;98974.84;5139336;27;19924;-75
2021/05/01 10:02:17;;;;;;;;;;;;;;;22.54;50.76;98988.00;5137957;27;20444;-75
2021/05/01 10:04:59;;;;;;;;;;;;;;;22.31;51.67;98996.38;5120115;27;19923;-75
2021/05/01 10:07:28;;;;;;;;;;;;;;;22.13;52.64;98982.69;5138812;27;19923;-75
2021/05/01 10:09:57;;;;;;;;;;;;;;;22.15;52.58;98965.22;5138318;27;19930;-75
2021/05/01 10:12:34;;;;;;;;;;;;;;;22.33;52.68;98965.91;5139731;27;19982;-74
2021/05/01 10:15:02;;;;;;;;;;;;;;;22.33;52.18;98951.13;5140802;27;19952;-75
2021/05/01 10:17:30;;;;;;;;;;;;;;;22.42;52.23;98945.38;5138523;27;19976;-75
2021/05/01 10:20:00;;;;;;;;;;;;;;;22.50;51.89;98948.34;5138250;27;19951;-76
2021/05/01 10:22:29;;;;;;;;;;;;;;;22.59;51.92;98937.38;5138655;27;20381;-76
2021/05/01 10:24:58;;;;;;;;;;;;;;;22.62;51.02;98932.03;5120805;27;19923;-76
2021/05/01 10:27:27;;;;;;;;;;;;;;;22.62;51.08;98932.03;5137699;27;20334;-76
2021/05/01 10:30:09;;;;;;;;;;;;;;;22.71;51.18;98935.81;5136837;27;19923;-76
2021/05/01 10:32:44;;;;;;;;;;;;;;;22.90;51.18;98927.69;5138006;27;20448;-77
2021/05/01 10:35:12;;;;;;;;;;;;;;;23.17;51.11;98918.16;5133651;27;19923;-76
2021/05/01 10:37:48;;;;;;;;;;;;;;;23.38;50.53;98916.78;5137534;27;19930;-76
2021/05/01 10:40:17;;;;;;;;;;;;;;;23.37;49.97;98909.09;5137555;27;19930;-76
2021/05/01 10:43:10;;;;;;;;;;;;;;;23.39;50.21;98907.22;5137502;27;19923;-76
2021/05/01 10:45:38;;;;;;;;;;;;;;;23.42;49.95;98907.81;5137425;27;20010;-76
2021/05/01 10:48:08;;;;;;;;;;;;;;;23.33;49.75;98903.19;5137433;27;19924;-76
2021/05/01 10:50:36;;;;;;;;;;;;;;;23.44;50.31;98905.13;5137579;27;19950;-76
2021/05/01 10:53:05;;;;;;;;;;;;;;;23.50;49.95;98899.50;5137273;27;19969;-76
2021/05/01 10:55:42;;;;;;;;;;;;;;;23.41;49.02;98894.91;5137298;27;19958;-78
2021/05/01 10:58:11;;;;;;;;;;;;;;;23.46;49.43;98893.69;5137549;27;19923;-76
2021/05/01 11:00:43;;;;;;;;;;;;;;;23.58;49.30;98887.66;5136913;27;19923;-76
2021/05/01 11:03:15;;;;;;;;;;;;;;;23.61;49.36;98892.66;5137034;27;19923;-77
2021/05/01 11:05:44;;;;;;;;;;;;;;;23.68;49.60;98887.88;5119033;27;19967;-76
2021/05/01 11:08:22;;;;;;;;;;;;;;;23.81;50.15;98889.56;5119176;27;19923;-76
2021/05/01 11:10:51;;;;;;;;;;;;;;;23.89;49.79;98884.69;5137008;27;19992;-76
2021/05/01 11:13:20;;;;;;;;;;;;;;;23.88;49.41;98885.59;5136955;27;20010;-76
2021/05/01 11:15:51;;;;;;;;;;;;;;;23.95;48.56;98876.44;5136885;27;20373;-75
2021/05/01 11:18:20;;;;;;;;;;;;;;;24.13;49.31;98883.97;5136925;27;20334;-75
2021/05/01 11:20:53;;;;;;;;;;;;;;;24.07;48.79;98882.59;5136779;27;19963;-75
2021/05/01 11:23:21;;;;;;;;;;;;;;;24.07;48.53;98879.19;5136591;27;20027;-76
2021/05/01 11:25:50;;;;;;;;;;;;;;;24.12;48.37;98877.06;5136757;27;19923;-76
2021/05/01 11:28:20;;;;;;;;;;;;;;;24.07;47.61;98873.97;5136513;27;19949;-77
2021/05/01 11:30:50;;;;;;;;;;;;;;;24.21;48.26;98872.06;5136637;27;19923;-76
2021/05/01 11:33:19;;;;;;;;;;;;;;;24.17;47.60;98869.78;5136567;27;19923;-76
2021/05/01 11:35:48;;;;;;;;;;;;;;;24.38;47.74;98870.88;5136408;27;19923;-76
2021/05/01 11:38:20;;;;;;;;;;;;;;;24.57;47.77;98863.47;5136426;27;19949;-76
2021/05/01 11:40:48;;;;;;;;;;;;;;;24.67;47.59;98859.22;5135303;27;19963;-76
2021/05/01 11:43:16;;;;;;;;;;;;;;;24.67;47.26;98861.03;5136204;27;19923;-77
2021/05/01 11:45:45;;;;;;;;;;;;;;;24.51;46.89;98859.50;5136228;27;19924;-76
2021/05/01 11:48:17;;;;;;;;;;;;;;;24.45;47.23;98854.69;5136309;27;19924;-76
2021/05/01 11:50:49;;;;;;;;;;;;;;;24.43;47.59;98856.59;5136178;27;19923;-76
2021/05/01 11:53:25;;;;;;;;;;;;;;;24.20;46.68;98851.31;5136132;27;19930;-77
2021/05/01 11:55:55;;;;;;;;;;;;;;;24.10;47.48;98843.28;5136136;27;19927;-77
2021/05/01 11:58:29;;;;;;;;;;;;;;;24.06;47.45;98854.84;5136068;27;19927;-77
2021/05/01 12:01:13;;;;;;;;;;;;;;;24.02;48.28;98854.22;5135792;27;20323;-76
2021/05/01 12:03:43;;;;;;;;;;;;;;;23.95;47.78;98845.16;5136071;27;19965;-77
2021/05/01 12:06:15;;;;;;;;;;;;;;;23.95;48.22;98850.34;5135875;27;19968;-77
2021/05/01 12:08:43;;;;;;;;;;;;;;;24.10;48.58;98847.66;5135943;27;20022;-76
2021/05/01 12:11:11;;;;;;;;;;;;;;;24.25;48.29;98849.22;5135785;27;19968;-78
2021/05/01 12:13:41;;;;;;;;;;;;;;;24.37;47.36;98845.75;5135785;27;19923;-77
2021/05/01 12:16:17;;;;;;;;;;;;;;;24.34;47.60;98835.53;5135696;27;19923;-76
2021/05/01 12:18:47;;;;;;;;;;;;;;;24.57;47.46;98837.38;5136931;27;19923;-80
2021/05/01 12:21:16;;;;;;;;;;;;;;;24.59;47.27;98835.47;5136611;27;19924;-76
2021/05/01 12:23:44;;;;;;;;;;;;;;;24.61;47.10;98823.97;5135461;27;19950;-76
2021/05/01 12:26:22;;;;;;;;;;;;;;;24.55;46.64;98831.41;5135556;27;19976;-76
2021/05/01 12:28:50;;;;;;;;;;;;;;;24.50;46.66;98829.13;5135409;27;19976;-77
2021/05/01 12:31:38;;;;;;;;;;;;;;;24.49;47.47;98819.63;5135371;27;19924;-76
2021/05/01 12:34:07;;;;;;;;;;;;;;;24.64;47.33;98810.69;5135523;27;19957;-76
2021/05/01 12:36:40;;;;;;;;;;;;;;;24.77;46.65;98809.84;5135376;27;20373;-77
2021/05/01 12:39:08;;;;;;;;;;;;;;;24.77;46.34;98810.69;5117370;27;19927;-76
2021/05/01 12:41:40;;;;;;;;;;;;;;;24.72;46.60;98802.31;5117025;27;19923;-77
2021/05/01 12:44:09;;;;;;;;;;;;;;;24.74;47.04;98807.44;5135016;27;19969;-76
2021/05/01 12:46:46;;;;;;;;;;;;;;;24.86;47.08;98812.63;5135431;27;20018;-77
2021/05/01 12:49:20;;;;;;;;;;;;;;;24.85;46.12;98810.13;5135293;27;20353;-76
2021/05/01 12:51:58;;;;;;;;;;;;;;;24.80;46.89;98807.84;5135128;27;19923;-76
2021/05/01 12:54:35;;;;;;;;;;;;;;;24.93;46.32;98799.97;5135173;27;19923;-76
2021/05/01 12:57:14;;;;;;;;;;;;;;;25.04;45.76;98798.22;5135043;27;19923;-76
2021/05/01 12:59:48;;;;;;;;;;;;;;;25.03;45.42;98801.78;5135075;27;20034;-77
2021/05/01 13:02:28;;;;;;;;;;;;;;;25.02;46.28;98796.69;5134138;27;20315;-77